sensor_id;sensor_type;location;lat;lon;timestamp;pressure;altitude;pressure_sealevel;temperature;humidity
54936;BME280;40838;50.676;7.838;2023-04-15T00:00:41;97501.53;;;-3.88;100.00
54936;BME280;40838;50.676;7.838;2023-04-15T00:03:08;97498.16;;;-4.02;100.00
54936;BME280;40838;50.676;7.838;2023-04-15T00:05:35;97499.75;;;-4.01;100.00
54936;BME280;40838;50.676;7.838;2023-04-15T00:08:03;97495.19;;;-4.12;100.00
54936;BME280;40838;50.676;7.838;2023-04-15T00:10:32;97495.78;;;-4.10;100.00
54936;BME280;40838;50.676;7.838;2023-04-15T00:12:59;97491.34;;;-4.03;100.00
54936;BME280;40838;50.676;7.838;2023-04-15T00:15:26;97488.16;;;-4.05;100.00
54936;BME280;40838;50.676;7.838;2023-04-15T00:17:53;97487.75;;;-4.02;100.00
54936;BME280;40838;50.676;7.838;2023-04-15T00:20:20;97486.97;;;-4.09;100.00
54936;BME280;40838;50.676;7.838;2023-04-15T00:22:47;97494.16;;;-4.11;100.00
54936;BME280;40838;50.676;7.838;2023-04-15T00:25:13;97490.41;;;-4.22;100.00
54936;BME280;40838;50.676;7.838;2023-04-15T00:27:42;97490.38;;;-4.15;100.00
54936;BME280;40838;50.676;7.838;2023-04-15T00:30:09;97489.53;;;-4.02;100.00
54936;BME280;40838;50.676;7.838;2023-04-15T00:32:37;97486.75;;;-4.07;100.00
54936;BME280;40838;50.676;7.838;2023-04-15T00:35:05;97489.97;;;-4.12;100.00
54936;BME280;40838;50.676;7.838;2023-04-15T00:37:32;97489.19;;;-4.26;100.00
54936;BME280;40838;50.676;7.838;2023-04-15T00:40:01;97480.00;;;-4.42;100.00
54936;BME280;40838;50.676;7.838;2023-04-15T00:42:30;97483.41;;;-4.41;100.00
54936;BME280;40838;50.676;7.838;2023-04-15T00:44:58;97483.56;;;-4.43;100.00
54936;BME280;40838;50.676;7.838;2023-04-15T00:47:26;97484.00;;;-4.32;100.00
54936;BME280;40838;50.676;7.838;2023-04-15T00:49:55;97483.38;;;-4.28;100.00
54936;BME280;40838;50.676;7.838;2023-04-15T00:52:22;97481.59;;;-4.41;100.00
54936;BME280;40838;50.676;7.838;2023-04-15T00:54:49;97484.78;;;-4.38;100.00
54936;BME280;40838;50.676;7.838;2023-04-15T00:57:17;97488.19;;;-4.45;100.00
54936;BME280;40838;50.676;7.838;2023-04-15T00:59:44;97480.81;;;-4.48;100.00
54936;BME280;40838;50.676;7.838;2023-04-15T01:02:13;97485.00;;;-4.47;100.00
54936;BME280;40838;50.676;7.838;2023-04-15T01:04:40;97491.59;;;-4.44;100.00
54936;BME280;40838;50.676;7.838;2023-04-15T01:07:08;97488.59;;;-4.54;100.00
54936;BME280;40838;50.676;7.838;2023-04-15T01:09:34;97480.19;;;-4.50;100.00
54936;BME280;40838;50.676;7.838;2023-04-15T01:12:01;97481.59;;;-4.60;100.00
54936;BME280;40838;50.676;7.838;2023-04-15T01:14:29;97475.59;;;-4.68;100.00
54936;BME280;40838;50.676;7.838;2023-04-15T01:16:56;97473.38;;;-4.77;100.00
54936;BME280;40838;50.676;7.838;2023-04-15T01:19:24;97476.41;;;-4.74;100.00
54936;BME280;40838;50.676;7.838;2023-04-15T01:21:51;97480.38;;;-4.84;100.00
54936;BME280;40838;50.676;7.838;2023-04-15T01:24:19;97478.97;;;-5.00;100.00
54936;BME280;40838;50.676;7.838;2023-04-15T01:26:47;97477.94;;;-5.06;100.00
54936;BME280;40838;50.676;7.838;2023-04-15T01:29:14;97479.72;;;-5.06;100.00
54936;BME280;40838;50.676;7.838;2023-04-15T01:31:49;97487.72;;;-5.01;100.00
54936;BME280;40838;50.676;7.838;2023-04-15T01:34:16;97486.31;;;-5.04;100.00
54936;BME280;40838;50.676;7.838;2023-04-15T01:36:43;97485.94;;;-5.01;100.00
54936;BME280;40838;50.676;7.838;2023-04-15T01:39:10;97483.94;;;-5.05;100.00
54936;BME280;40838;50.676;7.838;2023-04-15T01:41:37;97482.94;;;-4.98;100.00
54936;BME280;40838;50.676;7.838;2023-04-15T01:44:05;97481.97;;;-4.97;100.00
54936;BME280;40838;50.676;7.838;2023-04-15T01:46:32;97479.75;;;-5.00;100.00
54936;BME280;40838;50.676;7.838;2023-04-15T01:48:59;97478.34;;;-5.09;100.00
54936;BME280;40838;50.676;7.838;2023-04-15T01:51:26;97480.94;;;-5.02;100.00
54936;BME280;40838;50.676;7.838;2023-04-15T01:53:53;97489.13;;;-5.05;100.00
54936;BME280;40838;50.676;7.838;2023-04-15T01:56:22;97482.75;;;-5.03;100.00
54936;BME280;40838;50.676;7.838;2023-04-15T01:58:49;97487.91;;;-5.16;100.00
54936;BME280;40838;50.676;7.838;2023-04-15T02:01:17;97483.91;;;-5.19;100.00
54936;BME280;40838;50.676;7.838;2023-04-15T02:03:45;97489.47;;;-5.28;100.00
54936;BME280;40838;50.676;7.838;2023-04-15T02:06:14;97483.50;;;-5.22;100.00
54936;BME280;40838;50.676;7.838;2023-04-15T02:08:41;97480.50;;;-5.13;100.00
54936;BME280;40838;50.676;7.838;2023-04-15T02:11:08;97477.13;;;-5.20;100.00
54936;BME280;40838;50.676;7.838;2023-04-15T02:13:34;97482.69;;;-5.23;100.00
54936;BME280;40838;50.676;7.838;2023-04-15T02:16:02;97484.91;;;-5.26;100.00
54936;BME280;40838;50.676;7.838;2023-04-15T02:18:30;97485.63;;;-5.39;100.00
54936;BME280;40838;50.676;7.838;2023-04-15T02:20:57;97485.56;;;-5.59;100.00
54936;BME280;40838;50.676;7.838;2023-04-15T02:23:24;97482.78;;;-5.51;100.00
54936;BME280;40838;50.676;7.838;2023-04-15T02:25:50;97483.81;;;-5.52;100.00
54936;BME280;40838;50.676;7.838;2023-04-15T02:28:17;97486.38;;;-5.59;100.00
54936;BME280;40838;50.676;7.838;2023-04-15T02:30:47;97484.56;;;-5.58;100.00
54936;BME280;40838;50.676;7.838;2023-04-15T02:33:15;97486.56;;;-5.60;100.00
54936;BME280;40838;50.676;7.838;2023-04-15T02:35:43;97494.72;;;-5.63;100.00
54936;BME280;40838;50.676;7.838;2023-04-15T02:38:10;97500.53;;;-5.61;100.00
54936;BME280;40838;50.676;7.838;2023-04-15T02:40:37;97498.97;;;-5.49;100.00
54936;BME280;40838;50.676;7.838;2023-04-15T02:43:05;97506.31;;;-5.59;100.00
54936;BME280;40838;50.676;7.838;2023-04-15T02:45:33;97505.97;;;-5.56;100.00
54936;BME280;40838;50.676;7.838;2023-04-15T02:48:02;97504.94;;;-5.55;100.00
54936;BME280;40838;50.676;7.838;2023-04-15T02:50:30;97500.75;;;-5.56;100.00
54936;BME280;40838;50.676;7.838;2023-04-15T02:52:59;97500.53;;;-5.61;100.00
54936;BME280;40838;50.676;7.838;2023-04-15T02:55:27;97500.13;;;-5.65;100.00
54936;BME280;40838;50.676;7.838;2023-04-15T02:57:54;97504.09;;;-5.69;100.00
54936;BME280;40838;50.676;7.838;2023-04-15T03:00:22;97508.47;;;-5.69;100.00
54936;BME280;40838;50.676;7.838;2023-04-15T03:02:50;97510.44;;;-5.71;100.00
54936;BME280;40838;50.676;7.838;2023-04-15T03:05:21;97508.06;;;-5.73;100.00
54936;BME280;40838;50.676;7.838;2023-04-15T03:07:49;97504.84;;;-5.75;100.00
54936;BME280;40838;50.676;7.838;2023-04-15T03:10:19;97514.22;;;-5.74;100.00
54936;BME280;40838;50.676;7.838;2023-04-15T03:12:46;97513.19;;;-5.80;100.00
54936;BME280;40838;50.676;7.838;2023-04-15T03:15:17;97505.22;;;-5.85;100.00
54936;BME280;40838;50.676;7.838;2023-04-15T03:17:48;97506.81;;;-5.84;100.00
54936;BME280;40838;50.676;7.838;2023-04-15T03:20:16;97509.22;;;-5.82;100.00
54936;BME280;40838;50.676;7.838;2023-04-15T03:22:42;97503.22;;;-5.83;100.00
54936;BME280;40838;50.676;7.838;2023-04-15T03:25:10;97500.41;;;-5.88;100.00
54936;BME280;40838;50.676;7.838;2023-04-15T03:27:38;97498.78;;;-5.89;100.00
54936;BME280;40838;50.676;7.838;2023-04-15T03:30:06;97502.75;;;-5.93;100.00
54936;BME280;40838;50.676;7.838;2023-04-15T03:32:36;97507.97;;;-5.86;100.00
54936;BME280;40838;50.676;7.838;2023-04-15T03:35:05;97508.78;;;-5.86;100.00
54936;BME280;40838;50.676;7.838;2023-04-15T03:37:32;97506.63;;;-5.82;100.00
54936;BME280;40838;50.676;7.838;2023-04-15T03:39:59;97503.44;;;-5.78;100.00
54936;BME280;40838;50.676;7.838;2023-04-15T03:42:26;97506.25;;;-5.72;100.00
54936;BME280;40838;50.676;7.838;2023-04-15T03:44:54;97509.09;;;-5.67;100.00
54936;BME280;40838;50.676;7.838;2023-04-15T03:47:21;97504.88;;;-5.68;100.00
54936;BME280;40838;50.676;7.838;2023-04-15T03:49:48;97511.88;;;-5.69;100.00
54936;BME280;40838;50.676;7.838;2023-04-15T03:52:15;97505.88;;;-5.69;100.00
54936;BME280;40838;50.676;7.838;2023-04-15T03:54:42;97496.28;;;-5.69;100.00
54936;BME280;40838;50.676;7.838;2023-04-15T03:57:09;97502.66;;;-5.71;100.00
54936;BME280;40838;50.676;7.838;2023-04-15T03:59:35;97505.25;;;-5.78;100.00
54936;BME280;40838;50.676;7.838;2023-04-15T04:02:03;97501.84;;;-5.79;100.00
54936;BME280;40838;50.676;7.838;2023-04-15T04:04:30;97505.22;;;-5.85;100.00
54936;BME280;40838;50.676;7.838;2023-04-15T04:06:57;97504.81;;;-5.82;100.00
54936;BME280;40838;50.676;7.838;2023-04-15T04:09:24;97501.38;;;-5.89;100.00
54936;BME280;40838;50.676;7.838;2023-04-15T04:11:52;97499.16;;;-5.92;100.00
54936;BME280;40838;50.676;7.838;2023-04-15T04:14:19;97509.16;;;-5.89;100.00
54936;BME280;40838;50.676;7.838;2023-04-15T04:16:45;97513.19;;;-5.80;100.00
54936;BME280;40838;50.676;7.838;2023-04-15T04:19:13;97507.22;;;-5.80;100.00
54936;BME280;40838;50.676;7.838;2023-04-15T04:21:44;97512.03;;;-5.77;100.00
54936;BME280;40838;50.676;7.838;2023-04-15T04:24:10;97512.28;;;-5.65;100.00
54936;BME280;40838;50.676;7.838;2023-04-15T04:26:37;97512.09;;;-5.64;100.00
54936;BME280;40838;50.676;7.838;2023-04-15T04:29:04;97512.72;;;-5.62;100.00
54936;BME280;40838;50.676;7.838;2023-04-15T04:31:31;97511.22;;;-5.78;100.00
54936;BME280;40838;50.676;7.838;2023-04-15T04:33:58;97515.78;;;-5.80;100.00
54936;BME280;40838;50.676;7.838;2023-04-15T04:36:26;97517.25;;;-5.70;100.00
54936;BME280;40838;50.676;7.838;2023-04-15T04:38:53;97518.22;;;-5.71;100.00
54936;BME280;40838;50.676;7.838;2023-04-15T04:41:20;97524.84;;;-5.69;100.00
54936;BME280;40838;50.676;7.838;2023-04-15T04:43:47;97518.88;;;-5.63;100.00
54936;BME280;40838;50.676;7.838;2023-04-15T04:46:13;97517.06;;;-5.69;100.00
54936;BME280;40838;50.676;7.838;2023-04-15T04:48:40;97517.09;;;-5.62;100.00
54936;BME280;40838;50.676;7.838;2023-04-15T04:51:07;97516.09;;;-5.68;100.00
54936;BME280;40838;50.676;7.838;2023-04-15T04:53:35;97522.84;;;-5.73;100.00
54936;BME280;40838;50.676;7.838;2023-04-15T04:56:03;97519.00;;;-5.78;100.00
54936;BME280;40838;50.676;7.838;2023-04-15T04:58:30;97520.84;;;-5.71;100.00
54936;BME280;40838;50.676;7.838;2023-04-15T05:00:56;97517.84;;;-5.68;100.00
54936;BME280;40838;50.676;7.838;2023-04-15T05:03:24;97526.25;;;-5.66;100.00
54936;BME280;40838;50.676;7.838;2023-04-15T05:05:50;97530.44;;;-5.65;100.00
54936;BME280;40838;50.676;7.838;2023-04-15T05:08:17;97533.09;;;-5.59;100.00
54936;BME280;40838;50.676;7.838;2023-04-15T05:10:45;97534.50;;;-5.56;100.00
54936;BME280;40838;50.676;7.838;2023-04-15T05:13:12;97530.75;;;-5.47;100.00
54936;BME280;40838;50.676;7.838;2023-04-15T05:15:39;97532.19;;;-5.38;100.00
54936;BME280;40838;50.676;7.838;2023-04-15T05:18:07;97533.16;;;-5.39;100.00
54936;BME280;40838;50.676;7.838;2023-04-15T05:20:34;97535.16;;;-5.41;100.00
54936;BME280;40838;50.676;7.838;2023-04-15T05:23:01;97532.41;;;-5.33;100.00
54936;BME280;40838;50.676;7.838;2023-04-15T05:25:28;97534.56;;;-5.36;100.00
54936;BME280;40838;50.676;7.838;2023-04-15T05:27:56;97535.44;;;-5.22;100.00
54936;BME280;40838;50.676;7.838;2023-04-15T05:30:23;97537.66;;;-5.13;100.00
54936;BME280;40838;50.676;7.838;2023-04-15T05:32:50;97536.28;;;-5.08;100.00
54936;BME280;40838;50.676;7.838;2023-04-15T05:35:17;97541.72;;;-4.97;100.00
54936;BME280;40838;50.676;7.838;2023-04-15T05:37:44;97552.34;;;-4.78;100.00
54936;BME280;40838;50.676;7.838;2023-04-15T05:40:11;97555.75;;;-4.78;100.00
54936;BME280;40838;50.676;7.838;2023-04-15T05:42:39;97559.38;;;-4.52;100.00
54936;BME280;40838;50.676;7.838;2023-04-15T05:45:08;97558.59;;;-4.39;100.00
54936;BME280;40838;50.676;7.838;2023-04-15T05:47:35;97566.00;;;-4.30;100.00
54936;BME280;40838;50.676;7.838;2023-04-15T05:50:02;97567.59;;;-3.96;100.00
54936;BME280;40838;50.676;7.838;2023-04-15T05:52:29;97564.19;;;-3.96;100.00
54936;BME280;40838;50.676;7.838;2023-04-15T05:54:55;97559.13;;;-3.58;100.00
54936;BME280;40838;50.676;7.838;2023-04-15T05:57:22;97565.72;;;-3.48;100.00
54936;BME280;40838;50.676;7.838;2023-04-15T05:59:49;97561.44;;;-3.30;100.00
54936;BME280;40838;50.676;7.838;2023-04-15T06:02:18;97566.78;;;-3.11;100.00
54936;BME280;40838;50.676;7.838;2023-04-15T06:04:45;97567.72;;;-2.92;100.00
54936;BME280;40838;50.676;7.838;2023-04-15T06:07:12;97566.00;;;-3.12;100.00
54936;BME280;40838;50.676;7.838;2023-04-15T06:09:39;97564.53;;;-1.81;100.00
54936;BME280;40838;50.676;7.838;2023-04-15T06:12:09;97562.72;;;-0.46;100.00
54936;BME280;40838;50.676;7.838;2023-04-15T06:14:37;97559.09;;;0.84;100.00
54936;BME280;40838;50.676;7.838;2023-04-15T06:17:05;97570.13;;;1.72;100.00
54936;BME280;40838;50.676;7.838;2023-04-15T06:19:33;97561.69;;;2.98;100.00
54936;BME280;40838;50.676;7.838;2023-04-15T06:22:01;97569.41;;;3.32;100.00
54936;BME280;40838;50.676;7.838;2023-04-15T06:24:28;97575.22;;;1.62;100.00
54936;BME280;40838;50.676;7.838;2023-04-15T06:26:55;97574.19;;;1.80;100.00
54936;BME280;40838;50.676;7.838;2023-04-15T06:29:22;97572.81;;;2.83;100.00
54936;BME280;40838;50.676;7.838;2023-04-15T06:31:49;97577.50;;;3.25;100.00
54936;BME280;40838;50.676;7.838;2023-04-15T06:34:15;97578.41;;;3.36;100.00
54936;BME280;40838;50.676;7.838;2023-04-15T06:36:44;97583.28;;;3.82;100.00
54936;BME280;40838;50.676;7.838;2023-04-15T06:39:11;97577.50;;;4.54;100.00
54936;BME280;40838;50.676;7.838;2023-04-15T06:41:37;97574.16;;;3.94;100.00
54936;BME280;40838;50.676;7.838;2023-04-15T06:44:05;97579.47;;;3.40;100.00
54936;BME280;40838;50.676;7.838;2023-04-15T06:46:31;97581.31;;;3.13;100.00
54936;BME280;40838;50.676;7.838;2023-04-15T06:48:58;97589.28;;;2.96;100.00
54936;BME280;40838;50.676;7.838;2023-04-15T06:51:26;97583.56;;;3.53;100.00
54936;BME280;40838;50.676;7.838;2023-04-15T06:53:54;97585.81;;;3.98;100.00
54936;BME280;40838;50.676;7.838;2023-04-15T06:56:21;97578.25;;;4.97;100.00
54936;BME280;40838;50.676;7.838;2023-04-15T06:58:48;97583.59;;;6.81;100.00
54936;BME280;40838;50.676;7.838;2023-04-15T07:01:15;97580.88;;;7.02;98.82
54936;BME280;40838;50.676;7.838;2023-04-15T07:03:41;97576.66;;;7.55;91.65
54936;BME280;40838;50.676;7.838;2023-04-15T07:06:08;97571.47;;;6.55;97.25
54936;BME280;40838;50.676;7.838;2023-04-15T07:08:35;97569.91;;;7.29;100.00
54936;BME280;40838;50.676;7.838;2023-04-15T07:11:03;97574.59;;;7.42;95.08
54936;BME280;40838;50.676;7.838;2023-04-15T07:13:31;97576.34;;;7.07;97.84
54936;BME280;40838;50.676;7.838;2023-04-15T07:15:58;97580.28;;;6.30;100.00
54936;BME280;40838;50.676;7.838;2023-04-15T07:18:25;97576.28;;;5.50;100.00
54936;BME280;40838;50.676;7.838;2023-04-15T07:20:51;97581.56;;;6.53;100.00
54936;BME280;40838;50.676;7.838;2023-04-15T07:23:18;97576.00;;;5.57;100.00
54936;BME280;40838;50.676;7.838;2023-04-15T07:25:45;97579.84;;;5.03;100.00
54936;BME280;40838;50.676;7.838;2023-04-15T07:28:13;97573.53;;;5.20;100.00
54936;BME280;40838;50.676;7.838;2023-04-15T07:30:41;97579.50;;;4.37;100.00
54936;BME280;40838;50.676;7.838;2023-04-15T07:33:07;97576.59;;;4.01;100.00
54936;BME280;40838;50.676;7.838;2023-04-15T07:35:34;97575.41;;;4.56;100.00
54936;BME280;40838;50.676;7.838;2023-04-15T07:38:02;97583.16;;;4.31;100.00
54936;BME280;40838;50.676;7.838;2023-04-15T07:40:29;97586.53;;;3.94;100.00
54936;BME280;40838;50.676;7.838;2023-04-15T07:42:55;97582.47;;;4.98;100.00
54936;BME280;40838;50.676;7.838;2023-04-15T07:45:24;97586.22;;;5.18;100.00
54936;BME280;40838;50.676;7.838;2023-04-15T07:47:52;97597.44;;;5.71;100.00
54936;BME280;40838;50.676;7.838;2023-04-15T07:50:20;97591.66;;;6.30;100.00
54936;BME280;40838;50.676;7.838;2023-04-15T07:52:48;97583.72;;;6.40;100.00
54936;BME280;40838;50.676;7.838;2023-04-15T07:55:16;97583.13;;;6.59;100.00
54936;BME280;40838;50.676;7.838;2023-04-15T07:57:44;97587.94;;;6.36;100.00
54936;BME280;40838;50.676;7.838;2023-04-15T08:00:13;97586.34;;;6.35;97.79
54936;BME280;40838;50.676;7.838;2023-04-15T08:02:43;97587.94;;;6.31;97.42
54936;BME280;40838;50.676;7.838;2023-04-15T08:05:12;97584.53;;;5.90;100.00
54936;BME280;40838;50.676;7.838;2023-04-15T08:07:39;97591.41;;;5.86;100.00
54936;BME280;40838;50.676;7.838;2023-04-15T08:10:07;97602.47;;;6.34;99.32
54936;BME280;40838;50.676;7.838;2023-04-15T08:12:34;97603.28;;;6.24;93.54
54936;BME280;40838;50.676;7.838;2023-04-15T08:15:01;97589.56;;;7.12;91.21
54936;BME280;40838;50.676;7.838;2023-04-15T08:17:28;97588.91;;;6.71;91.82
54936;BME280;40838;50.676;7.838;2023-04-15T08:19:57;97587.63;;;7.78;83.40
54936;BME280;40838;50.676;7.838;2023-04-15T08:22:23;97592.25;;;7.57;90.76
54936;BME280;40838;50.676;7.838;2023-04-15T08:24:53;97596.97;;;7.26;89.56
54936;BME280;40838;50.676;7.838;2023-04-15T08:27:19;97590.44;;;8.79;75.72
54936;BME280;40838;50.676;7.838;2023-04-15T08:29:46;97589.41;;;8.99;68.98
54936;BME280;40838;50.676;7.838;2023-04-15T08:32:13;97598.72;;;8.19;75.25
54936;BME280;40838;50.676;7.838;2023-04-15T08:34:40;97598.75;;;8.14;77.85
54936;BME280;40838;50.676;7.838;2023-04-15T08:37:08;97600.25;;;8.25;77.43
54936;BME280;40838;50.676;7.838;2023-04-15T08:39:35;97599.91;;;8.03;82.98
54936;BME280;40838;50.676;7.838;2023-04-15T08:42:03;97601.47;;;7.70;81.87
54936;BME280;40838;50.676;7.838;2023-04-15T08:44:33;97592.69;;;8.91;73.26
54936;BME280;40838;50.676;7.838;2023-04-15T08:47:01;97600.88;;;8.70;81.56
54936;BME280;40838;50.676;7.838;2023-04-15T08:49:31;97608.59;;;8.09;86.97
54936;BME280;40838;50.676;7.838;2023-04-15T08:51:59;97609.38;;;6.24;96.29
54936;BME280;40838;50.676;7.838;2023-04-15T08:54:27;97618.09;;;6.35;94.08
54936;BME280;40838;50.676;7.838;2023-04-15T08:56:56;97614.94;;;7.19;93.21
54936;BME280;40838;50.676;7.838;2023-04-15T08:59:24;97619.06;;;6.75;94.42
54936;BME280;40838;50.676;7.838;2023-04-15T09:01:50;97618.88;;;6.46;94.71
54936;BME280;40838;50.676;7.838;2023-04-15T09:04:18;97627.88;;;6.40;94.08
54936;BME280;40838;50.676;7.838;2023-04-15T09:06:45;97623.66;;;6.23;96.72
54936;BME280;40838;50.676;7.838;2023-04-15T09:09:12;97627.09;;;5.88;97.99
54936;BME280;40838;50.676;7.838;2023-04-15T09:11:41;97624.97;;;6.11;98.21
54936;BME280;40838;50.676;7.838;2023-04-15T09:14:08;97624.94;;;5.80;95.89
54936;BME280;40838;50.676;7.838;2023-04-15T09:16:58;97633.97;;;6.35;94.70
54936;BME280;40838;50.676;7.838;2023-04-15T09:19:28;97638.75;;;6.02;93.70
54936;BME280;40838;50.676;7.838;2023-04-15T09:21:58;97646.56;;;5.56;95.32
54936;BME280;40838;50.676;7.838;2023-04-15T09:24:34;97644.22;;;5.80;95.25
54936;BME280;40838;50.676;7.838;2023-04-15T09:27:04;97642.56;;;5.44;98.02
54936;BME280;40838;50.676;7.838;2023-04-15T09:29:30;97646.59;;;5.72;97.21
54936;BME280;40838;50.676;7.838;2023-04-15T09:32:08;97650.28;;;5.71;96.62
54936;BME280;40838;50.676;7.838;2023-04-15T09:34:36;97655.06;;;5.74;97.08
54936;BME280;40838;50.676;7.838;2023-04-15T09:37:02;97660.06;;;5.70;98.20
54936;BME280;40838;50.676;7.838;2023-04-15T09:39:44;97643.28;;;5.24;96.64
54936;BME280;40838;50.676;7.838;2023-04-15T09:42:13;97660.25;;;5.38;99.67
54936;BME280;40838;50.676;7.838;2023-04-15T09:44:40;97660.91;;;5.86;98.00
54936;BME280;40838;50.676;7.838;2023-04-15T09:47:07;97667.22;;;5.80;97.38
54936;BME280;40838;50.676;7.838;2023-04-15T09:49:34;97674.44;;;6.15;100.00
54936;BME280;40838;50.676;7.838;2023-04-15T09:52:01;97658.56;;;6.05;100.00
54936;BME280;40838;50.676;7.838;2023-04-15T09:54:35;97662.50;;;5.87;100.00
54936;BME280;40838;50.676;7.838;2023-04-15T09:57:05;97659.91;;;6.23;100.00
54936;BME280;40838;50.676;7.838;2023-04-15T09:59:34;97668.06;;;6.01;100.00
54936;BME280;40838;50.676;7.838;2023-04-15T10:02:03;97662.25;;;5.99;100.00
54936;BME280;40838;50.676;7.838;2023-04-15T10:04:32;97667.03;;;6.17;100.00
54936;BME280;40838;50.676;7.838;2023-04-15T10:07:02;97669.41;;;6.09;100.00
54936;BME280;40838;50.676;7.838;2023-04-15T10:09:30;97677.59;;;6.12;100.00
54936;BME280;40838;50.676;7.838;2023-04-15T10:11:57;97687.69;;;6.41;100.00
54936;BME280;40838;50.676;7.838;2023-04-15T10:14:27;97689.75;;;5.88;100.00
54936;BME280;40838;50.676;7.838;2023-04-15T10:17:00;97691.09;;;6.21;100.00
54936;BME280;40838;50.676;7.838;2023-04-15T10:19:30;97687.94;;;6.24;100.00
54936;BME280;40838;50.676;7.838;2023-04-15T10:21:57;97685.28;;;6.44;100.00
54936;BME280;40838;50.676;7.838;2023-04-15T10:24:24;97682.38;;;6.46;100.00
54936;BME280;40838;50.676;7.838;2023-04-15T10:26:53;97682.25;;;5.69;100.00
54936;BME280;40838;50.676;7.838;2023-04-15T10:29:22;97674.94;;;6.02;100.00
54936;BME280;40838;50.676;7.838;2023-04-15T10:31:50;97681.03;;;6.28;100.00
54936;BME280;40838;50.676;7.838;2023-04-15T10:34:20;97692.91;;;5.95;100.00
54936;BME280;40838;50.676;7.838;2023-04-15T10:36:49;97690.78;;;5.87;100.00
54936;BME280;40838;50.676;7.838;2023-04-15T10:39:38;97691.75;;;5.65;100.00
54936;BME280;40838;50.676;7.838;2023-04-15T10:42:06;97695.84;;;6.19;100.00
54936;BME280;40838;50.676;7.838;2023-04-15T10:44:35;97687.66;;;6.05;100.00
54936;BME280;40838;50.676;7.838;2023-04-15T10:47:09;97697.97;;;6.07;100.00
54936;BME280;40838;50.676;7.838;2023-04-15T10:49:46;97693.75;;;6.52;100.00
54936;BME280;40838;50.676;7.838;2023-04-15T10:52:15;97703.78;;;6.90;100.00
54936;BME280;40838;50.676;7.838;2023-04-15T10:54:43;97703.81;;;6.29;100.00
54936;BME280;40838;50.676;7.838;2023-04-15T10:57:15;97710.69;;;6.40;100.00
54936;BME280;40838;50.676;7.838;2023-04-15T11:00:02;97707.97;;;5.89;100.00
54936;BME280;40838;50.676;7.838;2023-04-15T11:02:44;97720.56;;;5.67;100.00
54936;BME280;40838;50.676;7.838;2023-04-15T11:05:14;97720.78;;;5.50;100.00
54936;BME280;40838;50.676;7.838;2023-04-15T11:07:51;97718.97;;;5.03;100.00
54936;BME280;40838;50.676;7.838;2023-04-15T11:10:51;97721.91;;;5.11;100.00
54936;BME280;40838;50.676;7.838;2023-04-15T11:13:26;97729.22;;;4.94;100.00
54936;BME280;40838;50.676;7.838;2023-04-15T11:15:57;97736.22;;;5.21;100.00
54936;BME280;40838;50.676;7.838;2023-04-15T11:18:30;97738.94;;;4.88;100.00
54936;BME280;40838;50.676;7.838;2023-04-15T11:21:00;97742.13;;;4.96;100.00
54936;BME280;40838;50.676;7.838;2023-04-15T11:23:33;97740.47;;;4.84;100.00
54936;BME280;40838;50.676;7.838;2023-04-15T11:26:01;97749.72;;;4.87;100.00
54936;BME280;40838;50.676;7.838;2023-04-15T11:28:31;97736.03;;;4.90;100.00
54936;BME280;40838;50.676;7.838;2023-04-15T11:31:05;97760.97;;;5.09;100.00
54936;BME280;40838;50.676;7.838;2023-04-15T11:33:33;97753.72;;;4.89;100.00
54936;BME280;40838;50.676;7.838;2023-04-15T11:36:01;97762.88;;;5.19;100.00
54936;BME280;40838;50.676;7.838;2023-04-15T11:38:29;97759.44;;;5.19;100.00
54936;BME280;40838;50.676;7.838;2023-04-15T11:40:56;97767.72;;;5.32;100.00
54936;BME280;40838;50.676;7.838;2023-04-15T11:43:23;97768.94;;;5.20;100.00
54936;BME280;40838;50.676;7.838;2023-04-15T11:45:53;97764.41;;;5.10;100.00
54936;BME280;40838;50.676;7.838;2023-04-15T11:48:22;97771.50;;;5.04;100.00
54936;BME280;40838;50.676;7.838;2023-04-15T11:50:53;97771.28;;;4.74;100.00
54936;BME280;40838;50.676;7.838;2023-04-15T11:53:22;97770.28;;;4.85;100.00
54936;BME280;40838;50.676;7.838;2023-04-15T11:55:50;97773.91;;;5.06;100.00
54936;BME280;40838;50.676;7.838;2023-04-15T11:58:19;97778.06;;;5.02;100.00
54936;BME280;40838;50.676;7.838;2023-04-15T12:00:48;97786.16;;;4.90;100.00
54936;BME280;40838;50.676;7.838;2023-04-15T12:03:20;97785.25;;;5.06;100.00
54936;BME280;40838;50.676;7.838;2023-04-15T12:06:10;97789.16;;;5.46;100.00
54936;BME280;40838;50.676;7.838;2023-04-15T12:08:59;97796.34;;;5.51;100.00
54936;BME280;40838;50.676;7.838;2023-04-15T12:11:34;97783.31;;;4.97;100.00
54936;BME280;40838;50.676;7.838;2023-04-15T12:14:07;97802.63;;;5.02;100.00
54936;BME280;40838;50.676;7.838;2023-04-15T12:16:35;97804.19;;;4.66;100.00
54936;BME280;40838;50.676;7.838;2023-04-15T12:19:05;97811.53;;;4.59;100.00
54936;BME280;40838;50.676;7.838;2023-04-15T12:21:34;97818.78;;;4.74;100.00
54936;BME280;40838;50.676;7.838;2023-04-15T12:24:04;97817.38;;;4.66;100.00
54936;BME280;40838;50.676;7.838;2023-04-15T12:26:34;97825.84;;;4.41;100.00
54936;BME280;40838;50.676;7.838;2023-04-15T12:29:02;97824.66;;;4.27;100.00
54936;BME280;40838;50.676;7.838;2023-04-15T12:31:30;97834.38;;;4.26;100.00
54936;BME280;40838;50.676;7.838;2023-04-15T12:33:57;97836.50;;;4.51;100.00
54936;BME280;40838;50.676;7.838;2023-04-15T12:36:25;97834.88;;;4.45;100.00
54936;BME280;40838;50.676;7.838;2023-04-15T12:38:52;97854.31;;;3.95;100.00
54936;BME280;40838;50.676;7.838;2023-04-15T12:41:21;97851.13;;;3.93;100.00
54936;BME280;40838;50.676;7.838;2023-04-15T12:43:49;97857.06;;;3.83;100.00
54936;BME280;40838;50.676;7.838;2023-04-15T12:46:15;97861.06;;;3.86;100.00
54936;BME280;40838;50.676;7.838;2023-04-15T12:48:43;97868.53;;;3.72;100.00
54936;BME280;40838;50.676;7.838;2023-04-15T12:51:10;97872.53;;;3.58;100.00
54936;BME280;40838;50.676;7.838;2023-04-15T12:53:36;97869.00;;;3.69;100.00
54936;BME280;40838;50.676;7.838;2023-04-15T12:56:04;97870.78;;;3.63;100.00
54936;BME280;40838;50.676;7.838;2023-04-15T12:58:32;97878.19;;;3.66;100.00
54936;BME280;40838;50.676;7.838;2023-04-15T13:00:59;97886.91;;;3.50;100.00
54936;BME280;40838;50.676;7.838;2023-04-15T13:03:26;97889.88;;;3.37;100.00